createdAt,value
2019-03-31T00:00:03.519Z,8.50
2019-03-31T00:02:36.500Z,8.40
2019-03-31T00:05:07.883Z,8.40
2019-03-31T00:07:39.682Z,8.30
2019-03-31T00:10:11.080Z,8.30
2019-03-31T00:12:43.778Z,8.30
2019-03-31T00:15:15.100Z,8.20
2019-03-31T00:17:46.431Z,8.20
2019-03-31T00:20:17.679Z,8.20
2019-03-31T00:22:49.024Z,8.10
2019-03-31T00:25:20.361Z,8.10
2019-03-31T00:27:51.745Z,8.10
2019-03-31T00:30:23.110Z,8.10
2019-03-31T00:32:55.931Z,8.00
2019-03-31T00:35:27.309Z,7.90
2019-03-31T00:37:58.696Z,7.90
2019-03-31T00:40:29.994Z,8.00
2019-03-31T00:43:01.377Z,8.00
2019-03-31T00:45:32.893Z,8.00
2019-03-31T00:48:04.232Z,7.90
2019-03-31T00:50:35.614Z,7.90
2019-03-31T00:53:06.959Z,8.00
2019-03-31T00:55:40.414Z,7.90
2019-03-31T00:58:11.741Z,7.90
2019-03-31T01:01:10.299Z,7.80
2019-03-31T01:03:43.828Z,7.80
2019-03-31T01:06:17.465Z,7.90
2019-03-31T01:08:48.887Z,8.00
2019-03-31T01:11:25.610Z,8.00
2019-03-31T01:13:56.958Z,8.00
2019-03-31T01:16:29.933Z,8.00
2019-03-31T01:19:01.441Z,8.00
2019-03-31T01:21:34.853Z,8.00
2019-03-31T01:24:06.151Z,8.00
2019-03-31T01:26:37.452Z,8.00
2019-03-31T01:29:08.991Z,8.00
2019-03-31T01:31:50.161Z,7.90
2019-03-31T01:34:13.729Z,7.90
2019-03-31T01:36:45.111Z,7.90
2019-03-31T01:39:16.434Z,7.80
2019-03-31T01:41:47.761Z,7.80
2019-03-31T01:44:19.071Z,7.80
2019-03-31T01:46:50.404Z,7.70
2019-03-31T01:49:21.688Z,7.70
2019-03-31T02:09:57.982Z,7.80
2019-03-31T02:12:29.406Z,7.80
2019-03-31T02:15:00.769Z,7.90
2019-03-31T02:17:32.086Z,7.90
2019-03-31T02:20:04.212Z,7.90
2019-03-31T02:22:35.532Z,8.00
2019-03-31T02:25:07.065Z,8.00
2019-03-31T02:27:39.854Z,8.00
2019-03-31T02:30:11.429Z,8.00
2019-03-31T02:32:43.047Z,8.00
2019-03-31T02:35:14.595Z,8.00
2019-03-31T02:37:47.235Z,8.00
2019-03-31T02:40:18.556Z,8.00
2019-03-31T02:42:50.029Z,8.00
2019-03-31T02:45:21.407Z,8.00
2019-03-31T02:47:52.771Z,8.00
2019-03-31T02:50:47.914Z,7.90
2019-03-31T02:53:20.361Z,7.90
2019-03-31T02:55:53.497Z,7.90
2019-03-31T02:58:27.470Z,7.90
2019-03-31T03:00:58.999Z,7.90
2019-03-31T03:03:32.776Z,7.90
2019-03-31T03:06:06.937Z,7.90
2019-03-31T03:08:40.700Z,7.90
2019-03-31T03:11:13.464Z,7.90
2019-03-31T03:13:45.368Z,7.90
2019-03-31T03:16:20.982Z,7.90
2019-03-31T03:18:52.391Z,7.90
2019-03-31T03:21:25.018Z,7.90
2019-03-31T03:23:56.706Z,7.90
2019-03-31T03:26:27.970Z,7.90
2019-03-31T03:28:59.225Z,7.90
2019-03-31T03:31:30.531Z,7.80
2019-03-31T03:34:02.022Z,7.80
2019-03-31T03:36:33.270Z,7.80
2019-03-31T03:39:06.280Z,7.80
2019-03-31T03:41:37.546Z,7.70
2019-03-31T03:44:08.882Z,7.70
2019-03-31T03:46:40.363Z,7.80
2019-03-31T03:49:12.141Z,7.70
2019-03-31T03:51:43.774Z,7.70
2019-03-31T03:54:15.012Z,7.70
2019-03-31T03:56:46.355Z,7.70
2019-03-31T03:59:17.845Z,7.70
2019-03-31T04:01:50.135Z,7.70
2019-03-31T04:04:21.501Z,7.70
2019-03-31T04:06:52.895Z,7.80
2019-03-31T04:09:24.218Z,7.80
2019-03-31T04:11:55.622Z,7.80
2019-03-31T04:14:26.994Z,7.80
2019-03-31T04:16:58.544Z,7.80
2019-03-31T04:19:29.900Z,7.90
2019-03-31T04:22:01.218Z,7.90
2019-03-31T04:24:34.095Z,7.90
2019-03-31T04:27:05.732Z,7.90
2019-03-31T04:29:36.958Z,7.90
2019-03-31T04:32:08.315Z,7.80
2019-03-31T04:34:39.681Z,7.80
2019-03-31T04:37:11.201Z,7.90
2019-03-31T04:39:42.745Z,7.90
2019-03-31T04:42:14.055Z,7.90
2019-03-31T04:44:45.428Z,7.90
2019-03-31T04:47:16.775Z,7.90
2019-03-31T04:49:48.123Z,7.90
2019-03-31T04:52:19.492Z,8.00
2019-03-31T04:54:51.793Z,7.90
2019-03-31T04:57:23.143Z,7.90
2019-03-31T04:59:54.462Z,7.90
2019-03-31T05:02:27.399Z,7.90
2019-03-31T05:04:59.982Z,7.90
2019-03-31T05:07:32.371Z,8.00
2019-03-31T05:10:04.590Z,8.00
2019-03-31T05:12:35.877Z,8.10
2019-03-31T05:15:07.345Z,8.00
2019-03-31T05:17:38.793Z,7.90
2019-03-31T05:20:10.184Z,7.90
2019-03-31T05:22:41.538Z,7.90
2019-03-31T05:25:13.986Z,7.90
2019-03-31T05:27:45.343Z,8.00
2019-03-31T05:30:16.600Z,8.00
2019-03-31T05:32:47.946Z,8.00
2019-03-31T05:35:19.262Z,8.00
2019-03-31T05:37:51.523Z,8.10
2019-03-31T05:40:24.103Z,8.10
2019-03-31T05:42:55.554Z,8.10
2019-03-31T05:45:26.855Z,8.00
2019-03-31T05:47:58.156Z,8.00
2019-03-31T05:50:29.514Z,8.00
2019-03-31T05:53:00.845Z,8.00
2019-03-31T05:55:32.036Z,8.10
2019-03-31T05:58:04.395Z,8.10
2019-03-31T06:00:39.666Z,8.10
2019-03-31T06:03:11.024Z,8.10
2019-03-31T06:05:42.403Z,8.10
2019-03-31T06:08:13.799Z,8.20
2019-03-31T06:10:45.102Z,8.20
2019-03-31T06:13:16.590Z,8.20
2019-03-31T06:15:49.034Z,8.20
2019-03-31T06:18:20.312Z,8.20
2019-03-31T06:20:51.645Z,8.10
2019-03-31T06:23:22.944Z,8.20
2019-03-31T06:25:54.212Z,8.10
2019-03-31T06:28:25.608Z,8.20
2019-03-31T06:30:56.880Z,8.20
2019-03-31T06:33:28.246Z,8.20
2019-03-31T06:35:59.503Z,8.20
2019-03-31T06:38:30.905Z,8.20
2019-03-31T06:41:02.302Z,8.30
2019-03-31T06:43:33.608Z,8.30
2019-03-31T06:46:04.921Z,8.40
2019-03-31T06:48:36.215Z,8.40
2019-03-31T06:51:07.642Z,8.40
2019-03-31T06:53:39.133Z,8.50
2019-03-31T06:56:10.521Z,8.50
2019-03-31T06:58:41.878Z,8.50
2019-03-31T07:01:13.149Z,8.50
2019-03-31T07:03:44.359Z,8.60
2019-03-31T07:06:15.636Z,8.60
2019-03-31T07:08:46.928Z,8.70
2019-03-31T07:11:19.233Z,8.80
2019-03-31T07:13:50.575Z,8.90
2019-03-31T07:16:21.919Z,8.90
2019-03-31T07:18:53.262Z,8.90
2019-03-31T07:21:24.567Z,9.00
2019-03-31T07:23:55.784Z,8.90
2019-03-31T07:27:09.319Z,9.00
2019-03-31T07:30:10.730Z,9.00
2019-03-31T07:32:42.134Z,9.00
2019-03-31T07:35:18.708Z,8.90
2019-03-31T07:37:48.829Z,8.90
2019-03-31T07:40:22.117Z,8.90
2019-03-31T07:42:54.168Z,8.90
2019-03-31T07:45:25.634Z,8.90
2019-03-31T07:47:56.919Z,8.90
2019-03-31T07:50:28.483Z,8.90
2019-03-31T07:53:00.006Z,8.90
2019-03-31T07:55:31.353Z,8.90
2019-03-31T07:58:02.669Z,9.00
2019-03-31T08:00:34.084Z,9.00
2019-03-31T08:03:07.029Z,9.10
2019-03-31T08:05:38.522Z,9.20
2019-03-31T08:08:12.814Z,9.20
2019-03-31T08:10:44.186Z,9.20
2019-03-31T08:13:23.201Z,9.30
2019-03-31T08:15:58.557Z,9.30
2019-03-31T08:18:38.539Z,9.40
2019-03-31T08:21:16.278Z,9.30
2019-03-31T08:23:50.139Z,9.40
2019-03-31T08:26:23.232Z,9.40
2019-03-31T08:29:01.458Z,9.50
2019-03-31T08:31:40.670Z,9.50
2019-03-31T08:34:25.472Z,9.50
2019-03-31T08:36:56.806Z,9.50
2019-03-31T08:39:28.155Z,9.40
2019-03-31T08:42:18.333Z,9.50
2019-03-31T08:44:51.270Z,9.70
2019-03-31T08:47:27.024Z,9.70
2019-03-31T08:50:02.142Z,9.80
2019-03-31T08:52:33.134Z,9.70
2019-03-31T08:55:04.738Z,9.70
2019-03-31T08:57:36.182Z,9.80
2019-03-31T09:00:09.652Z,9.90
2019-03-31T09:03:15.182Z,9.90
2019-03-31T09:06:00.667Z,9.80
2019-03-31T09:08:20.033Z,9.70
2019-03-31T09:10:55.809Z,9.70
2019-03-31T09:13:27.121Z,9.70
2019-03-31T09:16:03.254Z,9.70
2019-03-31T09:18:35.110Z,9.70
2019-03-31T09:21:06.546Z,9.70
2019-03-31T09:23:37.938Z,9.80
2019-03-31T09:26:09.209Z,9.90
2019-03-31T09:28:40.743Z,10.00
2019-03-31T09:31:12.159Z,10.00
2019-03-31T09:33:43.522Z,10.10
2019-03-31T09:36:16.438Z,10.20
2019-03-31T09:38:48.601Z,10.30
2019-03-31T09:41:20.241Z,10.50
2019-03-31T09:43:51.823Z,10.70
2019-03-31T09:46:23.174Z,11.20
2019-03-31T09:48:55.151Z,11.40
2019-03-31T09:51:26.592Z,11.80
2019-03-31T09:53:58.094Z,12.30
2019-03-31T09:56:29.757Z,12.60
2019-03-31T09:59:02.146Z,12.70
2019-03-31T10:01:33.518Z,12.90
2019-03-31T10:04:05.017Z,13.00
2019-03-31T10:06:36.482Z,13.50
2019-03-31T10:09:08.834Z,13.60
2019-03-31T10:11:40.649Z,13.60
2019-03-31T10:14:12.072Z,13.60
2019-03-31T10:16:43.651Z,13.80
2019-03-31T10:19:16.514Z,13.50
2019-03-31T10:21:47.997Z,13.50
2019-03-31T10:24:21.034Z,13.40
2019-03-31T10:26:52.533Z,13.30
2019-03-31T10:29:23.995Z,13.20
2019-03-31T10:31:55.645Z,13.50
2019-03-31T10:34:26.991Z,14.00
2019-03-31T10:36:58.552Z,14.20
2019-03-31T10:39:30.022Z,14.20
2019-03-31T10:42:02.236Z,14.30
2019-03-31T10:44:34.660Z,14.10
2019-03-31T10:47:07.559Z,13.90
2019-03-31T10:49:41.227Z,13.80
2019-03-31T10:52:12.628Z,13.70
2019-03-31T10:54:44.095Z,13.50
2019-03-31T10:57:15.491Z,13.70
2019-03-31T10:59:46.903Z,13.70
2019-03-31T11:02:18.411Z,14.10
2019-03-31T11:04:49.755Z,14.20
2019-03-31T11:07:21.308Z,13.90
2019-03-31T11:09:52.647Z,13.90
2019-03-31T11:12:25.814Z,13.90
2019-03-31T11:14:57.367Z,13.70
2019-03-31T11:17:28.775Z,13.70
2019-03-31T11:20:01.951Z,13.80
2019-03-31T11:22:37.885Z,14.20
2019-03-31T11:25:20.709Z,14.00
2019-03-31T11:27:44.849Z,14.30
2019-03-31T11:30:16.610Z,14.80
2019-03-31T11:33:10.395Z,14.90
2019-03-31T11:36:28.333Z,14.70
2019-03-31T11:38:48.471Z,14.70
2019-03-31T11:41:19.886Z,14.40
2019-03-31T11:43:51.282Z,14.30
2019-03-31T11:46:29.482Z,14.60
2019-03-31T11:49:04.561Z,14.60
2019-03-31T11:51:44.999Z,14.80
2019-03-31T11:54:16.397Z,14.80
2019-03-31T11:56:47.867Z,15.10
2019-03-31T11:59:21.338Z,15.10
2019-03-31T12:01:53.232Z,15.40
2019-03-31T12:04:24.609Z,16.30
2019-03-31T12:06:58.259Z,17.00
2019-03-31T12:09:33.780Z,17.60
2019-03-31T12:12:09.554Z,18.10
2019-03-31T12:14:43.694Z,17.60
2019-03-31T12:17:20.895Z,18.20
2019-03-31T12:19:52.541Z,18.10
2019-03-31T12:22:23.987Z,17.70
2019-03-31T12:24:55.482Z,17.40
2019-03-31T12:27:27.031Z,17.70
2019-03-31T12:29:58.467Z,17.90
2019-03-31T12:32:29.833Z,17.60
2019-03-31T12:35:01.207Z,17.20
2019-03-31T12:37:42.183Z,17.00
2019-03-31T12:40:06.821Z,17.00
2019-03-31T12:42:38.432Z,18.60
2019-03-31T12:45:10.590Z,18.40
2019-03-31T12:47:42.265Z,18.00
2019-03-31T12:50:13.828Z,19.10
2019-03-31T12:52:46.916Z,20.70
2019-03-31T12:55:18.558Z,21.60
2019-03-31T12:57:51.853Z,21.00
2019-03-31T13:00:23.081Z,20.40
2019-03-31T13:02:57.039Z,19.10
2019-03-31T13:05:28.359Z,19.60
2019-03-31T13:07:59.783Z,19.90
2019-03-31T13:10:31.192Z,20.90
2019-03-31T13:13:02.618Z,21.50
2019-03-31T13:15:34.083Z,22.60
2019-03-31T13:18:06.614Z,22.00
2019-03-31T13:20:39.194Z,20.00
2019-03-31T13:23:10.886Z,19.80
2019-03-31T13:25:42.499Z,20.60
2019-03-31T13:28:14.522Z,21.70
2019-03-31T13:30:45.878Z,21.90
2019-03-31T13:33:17.131Z,22.30
2019-03-31T13:35:53.125Z,23.10
2019-03-31T13:38:23.675Z,23.90
2019-03-31T13:40:55.098Z,24.20
2019-03-31T13:43:28.121Z,23.10
2019-03-31T13:46:01.814Z,21.70
2019-03-31T13:48:34.200Z,21.60
2019-03-31T13:51:07.154Z,22.20
2019-03-31T13:53:38.470Z,22.40
2019-03-31T13:56:10.374Z,22.40
2019-03-31T13:58:42.438Z,21.90
2019-03-31T14:01:14.301Z,22.60
2019-03-31T14:03:45.790Z,22.80
2019-03-31T14:06:18.931Z,22.40
2019-03-31T14:08:54.254Z,21.10
2019-03-31T14:11:25.588Z,20.10
2019-03-31T14:13:56.897Z,20.10
2019-03-31T14:16:29.198Z,20.50
2019-03-31T14:19:01.897Z,20.70
2019-03-31T14:21:33.267Z,20.70
2019-03-31T14:24:04.699Z,19.80
2019-03-31T14:26:36.066Z,19.20
2019-03-31T14:29:07.503Z,20.10
2019-03-31T14:31:38.918Z,20.60
2019-03-31T14:34:11.122Z,20.60
2019-03-31T14:36:42.491Z,20.80
2019-03-31T14:39:16.988Z,19.80
2019-03-31T14:41:47.015Z,19.80
2019-03-31T14:44:18.400Z,20.70
2019-03-31T14:46:54.222Z,21.50
2019-03-31T14:49:25.985Z,21.60
2019-03-31T14:52:01.260Z,21.60
2019-03-31T14:54:34.508Z,20.20
2019-03-31T14:57:13.871Z,20.70
2019-03-31T14:59:40.574Z,20.40
2019-03-31T15:02:11.954Z,19.80
2019-03-31T15:04:43.288Z,20.00
2019-03-31T15:07:15.046Z,20.30
2019-03-31T15:09:58.032Z,21.10
2019-03-31T15:12:48.719Z,20.00
2019-03-31T15:15:21.077Z,20.30
2019-03-31T15:17:52.843Z,20.30
2019-03-31T15:20:44.477Z,19.30
2019-03-31T15:23:19.314Z,18.90
2019-03-31T15:25:51.047Z,19.30
2019-03-31T15:28:33.167Z,20.40
2019-03-31T15:31:12.529Z,19.30
2019-03-31T15:33:47.906Z,19.00
2019-03-31T15:36:23.003Z,19.00
2019-03-31T15:39:08.579Z,18.40
2019-03-31T15:41:35.934Z,17.80
2019-03-31T15:44:07.385Z,17.60
2019-03-31T15:46:38.767Z,18.40
2019-03-31T15:49:11.965Z,18.40
2019-03-31T15:51:46.380Z,17.90
2019-03-31T15:54:25.418Z,18.00
2019-03-31T15:57:03.410Z,18.40
2019-03-31T15:59:35.036Z,18.30
2019-03-31T16:02:14.328Z,17.70
2019-03-31T16:04:50.433Z,16.50
2019-03-31T16:07:28.111Z,15.60
2019-03-31T16:10:03.420Z,14.40
2019-03-31T16:12:35.945Z,13.80
2019-03-31T16:15:07.558Z,14.80
2019-03-31T16:17:45.183Z,15.80
2019-03-31T16:20:17.978Z,16.60
2019-03-31T16:22:50.772Z,17.30
2019-03-31T16:25:30.497Z,17.40
2019-03-31T16:28:06.844Z,17.00
2019-03-31T16:30:42.698Z,16.60
2019-03-31T16:33:13.563Z,16.10
2019-03-31T16:35:44.403Z,16.70
2019-03-31T16:38:17.890Z,16.20
2019-03-31T16:40:48.710Z,15.60
2019-03-31T16:43:19.624Z,15.10
2019-03-31T16:45:50.554Z,14.80
2019-03-31T16:48:21.374Z,14.30
2019-03-31T16:50:52.171Z,14.00
2019-03-31T16:53:22.954Z,13.40
2019-03-31T16:55:53.788Z,12.80
2019-03-31T16:58:24.899Z,12.50
2019-03-31T17:00:55.755Z,12.20
2019-03-31T17:03:26.601Z,12.10
2019-03-31T17:05:57.470Z,12.00
2019-03-31T17:08:28.278Z,11.90
2019-03-31T17:10:59.234Z,11.80
2019-03-31T17:13:30.054Z,11.80
2019-03-31T17:16:02.415Z,11.70
2019-03-31T17:18:33.354Z,11.70
2019-03-31T17:21:04.187Z,11.60
2019-03-31T17:23:34.947Z,11.50
2019-03-31T17:26:06.096Z,11.40
2019-03-31T17:28:37.779Z,11.40
2019-03-31T17:31:08.611Z,11.40
2019-03-31T17:33:39.467Z,11.30
2019-03-31T17:36:10.355Z,11.30
2019-03-31T17:38:42.794Z,11.20
2019-03-31T17:41:13.613Z,11.00
2019-03-31T17:43:44.360Z,11.00
2019-03-31T17:46:15.652Z,11.00
2019-03-31T17:48:47.374Z,10.90
2019-03-31T17:51:18.144Z,10.90
2019-03-31T17:53:49.079Z,10.60
2019-03-31T17:56:20.104Z,10.50
2019-03-31T17:58:51.028Z,10.50
2019-03-31T18:01:21.917Z,10.40
2019-03-31T18:03:52.722Z,10.30
2019-03-31T18:06:23.695Z,10.20
2019-03-31T18:08:54.496Z,10.10
2019-03-31T18:11:25.283Z,10.10
2019-03-31T18:13:56.409Z,10.10
2019-03-31T18:16:27.394Z,10.10
2019-03-31T18:18:58.255Z,9.90
2019-03-31T18:21:29.403Z,9.90
2019-03-31T18:24:00.189Z,9.80
2019-03-31T18:26:31.143Z,9.70
2019-03-31T18:29:01.946Z,9.70
2019-03-31T18:31:32.939Z,9.60
2019-03-31T18:34:03.738Z,9.50
2019-03-31T18:36:36.858Z,9.50
2019-03-31T18:39:09.558Z,9.40
2019-03-31T18:41:41.673Z,9.40
2019-03-31T18:44:14.850Z,9.30
2019-03-31T18:46:45.655Z,9.30
2019-03-31T18:49:17.955Z,9.30
2019-03-31T18:51:56.790Z,9.30
2019-03-31T18:54:38.480Z,9.10
2019-03-31T18:57:21.502Z,9.00
2019-03-31T19:00:10.169Z,9.10
2019-03-31T19:02:51.578Z,9.00
2019-03-31T19:05:41.469Z,8.90
2019-03-31T19:08:40.639Z,8.80
2019-03-31T19:11:30.761Z,8.80
2019-03-31T19:14:23.616Z,8.70
2019-03-31T19:17:11.700Z,8.80
2019-03-31T19:20:07.857Z,8.70
2019-03-31T19:22:59.903Z,8.60
2019-03-31T19:25:52.513Z,8.50
2019-03-31T19:28:41.277Z,8.50
2019-03-31T19:31:29.795Z,8.40
2019-03-31T19:34:19.205Z,8.30
2019-03-31T19:37:08.921Z,8.30
2019-03-31T19:39:58.992Z,8.30
2019-03-31T19:42:57.973Z,8.20
2019-03-31T19:45:46.438Z,8.20
2019-03-31T19:48:33.934Z,8.20
2019-03-31T19:51:42.341Z,8.10
2019-03-31T19:54:32.176Z,8.10
2019-03-31T19:57:22.073Z,7.90
2019-03-31T20:00:02.642Z,7.90
2019-03-31T20:02:56.139Z,7.90
2019-03-31T20:05:45.274Z,7.80
2019-03-31T20:08:43.822Z,7.80
2019-03-31T20:11:36.776Z,7.80
2019-03-31T20:14:26.247Z,7.70
2019-03-31T20:17:21.800Z,7.60
2019-03-31T20:20:07.676Z,7.60
2019-03-31T20:22:57.428Z,7.60
2019-03-31T20:25:53.609Z,7.50
2019-03-31T20:28:42.073Z,7.40
2019-03-31T20:31:32.735Z,7.40
2019-03-31T20:34:14.031Z,7.30
2019-03-31T20:37:03.751Z,7.20
2019-03-31T20:39:59.352Z,7.20
2019-03-31T20:42:47.954Z,7.10
2019-03-31T20:45:18.760Z,7.10
2019-03-31T20:47:49.532Z,7.00
2019-03-31T20:50:20.263Z,6.90
2019-03-31T20:52:51.084Z,6.90
2019-03-31T20:55:21.863Z,6.80
2019-03-31T20:57:52.782Z,6.80
2019-03-31T21:00:24.650Z,6.80
2019-03-31T21:02:55.496Z,6.80
2019-03-31T21:05:26.263Z,6.80
2019-03-31T21:07:58.660Z,6.80
2019-03-31T21:10:29.440Z,6.70
2019-03-31T21:13:01.732Z,6.70
2019-03-31T21:15:32.540Z,6.70
2019-03-31T21:18:04.455Z,6.60
2019-03-31T21:20:35.277Z,6.50
2019-03-31T21:23:06.038Z,6.40
2019-03-31T21:25:36.798Z,6.40
2019-03-31T21:28:07.700Z,6.40
2019-03-31T21:30:39.089Z,6.40
2019-03-31T21:33:09.886Z,6.30
2019-03-31T21:35:40.663Z,6.20
2019-03-31T21:38:11.450Z,6.20
2019-03-31T21:40:42.327Z,6.20
2019-03-31T21:43:14.146Z,6.10
2019-03-31T21:45:47.368Z,6.00
2019-03-31T21:48:18.246Z,6.10
2019-03-31T21:50:49.139Z,6.10
2019-03-31T21:53:19.926Z,6.00
2019-03-31T21:55:50.766Z,6.10
2019-03-31T21:58:22.106Z,6.00
2019-03-31T22:00:56.079Z,6.00
2019-03-31T22:03:29.935Z,6.00
2019-03-31T22:06:00.711Z,5.90
2019-03-31T22:08:31.482Z,5.90
2019-03-31T22:11:02.302Z,5.90
2019-03-31T22:13:33.073Z,5.80
2019-03-31T22:16:03.908Z,5.80
2019-03-31T22:18:34.727Z,5.80
2019-03-31T22:21:05.454Z,5.70
2019-03-31T22:23:36.344Z,5.70
2019-03-31T22:26:07.188Z,5.70
2019-03-31T22:28:38.169Z,5.70
2019-03-31T22:31:09.136Z,5.70
2019-03-31T22:33:40.668Z,5.60
2019-03-31T22:36:24.696Z,5.50
2019-03-31T22:38:55.392Z,5.50
2019-03-31T22:41:26.144Z,5.40
2019-03-31T22:43:56.891Z,5.50
2019-03-31T22:46:28.222Z,5.40
2019-03-31T22:48:58.978Z,5.40
2019-03-31T22:51:29.747Z,5.40
2019-03-31T22:54:00.552Z,5.30
2019-03-31T22:56:31.326Z,5.40
2019-03-31T22:59:02.146Z,5.40
2019-03-31T23:01:37.234Z,5.30
2019-03-31T23:04:08.663Z,5.30
2019-03-31T23:06:39.474Z,5.30
2019-03-31T23:09:10.301Z,5.20
2019-03-31T23:11:43.110Z,5.20
2019-03-31T23:14:13.895Z,5.10
2019-03-31T23:16:44.742Z,5.10
2019-03-31T23:19:15.619Z,5.10
2019-03-31T23:21:46.416Z,5.10
2019-03-31T23:24:18.856Z,5.10
2019-03-31T23:26:49.634Z,5.00
2019-03-31T23:29:20.438Z,5.00
2019-03-31T23:31:51.209Z,5.00
2019-03-31T23:34:21.975Z,5.00
2019-03-31T23:36:52.881Z,5.00
2019-03-31T23:39:23.616Z,5.00
2019-03-31T23:41:54.387Z,5.00
2019-03-31T23:44:25.108Z,5.00
2019-03-31T23:46:55.886Z,4.80
2019-03-31T23:49:26.674Z,4.80
2019-03-31T23:51:57.366Z,4.80
2019-03-31T23:54:28.154Z,4.70
2019-03-31T23:56:58.900Z,4.70
2019-03-31T23:59:29.725Z,4.70
